Terminal Aerodrome Forecast
Issued by NWS

Home | Current Version | Previous Version | Text Only | Print | Product List | Glossary On
Versions: 1 2 3 4 5 6 7 8 9 10 11 12 13 14 15 16 17 18 19 20 21 22 23 24 25 26 27 28
000
FTUS45 KSLC 211120
TAFBCE
TAF
KBCE 211120Z 2112/2212 28009KT P6SM FEW080 FEW150
     FM211600 15010KT P6SM FEW080 SCT150
     FM211900 21011G17KT P6SM VCSH SCT080 BKN120
     FM220300 28006KT P6SM FEW080 BKN150=

USA.gov is the U.S. government's official web portal to all federal, state and local government web resources and services.